Time;durP1;ratioP1;P1;durP2;ratioP2;P2;SDS_P1;SDS_P2;PMS_P1;PMS_P2;Temp;Humidity;BMP_temperature;BMP_pressure;BME280_temperature;BME280_humidity;BME280_pressure;Samples;Min_cycle;Max_cycle;Signal;HPM_P1;HPM_P2
2022/01/05 00:01:19;;;;;;;12.45;4.25;;;;;;;;;;5050746;28;20432;-59
2022/01/05 00:03:44;;;;;;;18.90;5.80;;;;;;;;;;5048815;28;20017;-60
2022/01/05 00:06:09;;;;;;;6.53;4.07;;;;;;;;;;5051262;28;20017;-59
2022/01/05 00:08:34;;;;;;;7.70;4.32;;;;;;;;;;5050728;28;20476;-59
2022/01/05 00:11:00;;;;;;;5.80;3.70;;;;;;;;;;5049337;28;20025;-59
2022/01/05 00:13:25;;;;;;;9.83;3.77;;;;;;;;;;5050387;28;20098;-59
2022/01/05 00:15:50;;;;;;;14.32;3.83;;;;;;;;;;5051486;28;20617;-59
2022/01/05 00:18:15;;;;;;;12.80;3.60;;;;;;;;;;5050467;28;20044;-60
2022/01/05 00:20:41;;;;;;;8.40;4.15;;;;;;;;;;5046415;28;20500;-60
2022/01/05 00:23:06;;;;;;;9.95;5.80;;;;;;;;;;5050794;28;20111;-60
2022/01/05 00:25:32;;;;;;;14.27;5.63;;;;;;;;;;5048682;28;20043;-60
2022/01/05 00:27:57;;;;;;;14.77;4.07;;;;;;;;;;5050810;28;20430;-59
2022/01/05 00:30:22;;;;;;;8.00;4.27;;;;;;;;;;5046665;28;20487;-60
2022/01/05 00:32:47;;;;;;;9.63;5.18;;;;;;;;;;5050140;28;20430;-60
2022/01/05 00:35:12;;;;;;;11.07;4.80;;;;;;;;;;5047090;28;20124;-60
2022/01/05 00:37:37;;;;;;;16.30;4.72;;;;;;;;;;5049926;28;20837;-60
2022/01/05 00:40:03;;;;;;;5.00;3.50;;;;;;;;;;5048852;28;20047;-60
2022/01/05 00:42:29;;;;;;;6.68;4.60;;;;;;;;;;5050219;28;20075;-60
2022/01/05 00:44:54;;;;;;;18.35;4.95;;;;;;;;;;5051195;28;20029;-59
2022/01/05 00:47:20;;;;;;;22.23;6.83;;;;;;;;;;5050797;28;20048;-59
2022/01/05 00:49:45;;;;;;;12.20;4.30;;;;;;;;;;5048388;28;20803;-59
2022/01/05 00:52:10;;;;;;;9.90;3.97;;;;;;;;;;5050224;28;20564;-59
2022/01/05 00:54:35;;;;;;;10.87;4.27;;;;;;;;;;5048420;28;20104;-59
2022/01/05 00:57:01;;;;;;;10.48;5.65;;;;;;;;;;5046746;28;20423;-59
2022/01/05 00:59:26;;;;;;;19.57;6.43;;;;;;;;;;5046769;28;20048;-58
2022/01/05 01:01:51;;;;;;;12.65;6.35;;;;;;;;;;5050156;28;20432;-59
2022/01/05 01:04:16;;;;;;;13.73;4.72;;;;;;;;;;5050017;28;20099;-59
2022/01/05 01:06:42;;;;;;;8.77;5.20;;;;;;;;;;5048785;28;20029;-59
2022/01/05 01:09:07;;;;;;;11.40;4.77;;;;;;;;;;5050501;28;20440;-59
2022/01/05 01:11:32;;;;;;;10.88;5.25;;;;;;;;;;5048128;28;20451;-59
2022/01/05 01:13:58;;;;;;;13.13;5.47;;;;;;;;;;5050633;28;20017;-59
2022/01/05 01:16:23;;;;;;;19.93;6.07;;;;;;;;;;5046109;28;21028;-59
2022/01/05 01:18:48;;;;;;;17.73;4.75;;;;;;;;;;5049689;28;20509;-59
2022/01/05 01:21:14;;;;;;;17.02;3.97;;;;;;;;;;5048668;28;20492;-59
2022/01/05 01:23:42;;;;;;;13.90;4.45;;;;;;;;;;5046912;28;20028;-59
2022/01/05 01:26:07;;;;;;;12.60;6.10;;;;;;;;;;5048623;28;20132;-59
2022/01/05 01:28:32;;;;;;;13.02;5.78;;;;;;;;;;5051065;28;20100;-59
2022/01/05 01:30:57;;;;;;;9.83;5.90;;;;;;;;;;5052328;28;20112;-59
2022/01/05 01:33:22;;;;;;;18.20;5.97;;;;;;;;;;5053874;28;20438;-60
2022/01/05 01:35:48;;;;;;;11.88;5.28;;;;;;;;;;5050568;28;20144;-59
2022/01/05 01:38:13;;;;;;;11.43;4.43;;;;;;;;;;5053165;28;20071;-59
2022/01/05 01:40:38;;;;;;;17.23;7.05;;;;;;;;;;5051751;28;20028;-59
2022/01/05 01:43:03;;;;;;;13.60;5.57;;;;;;;;;;5050051;28;20082;-59
2022/01/05 01:45:29;;;;;;;4.35;3.60;;;;;;;;;;5052213;28;20033;-59
2022/01/05 01:47:54;;;;;;;13.98;4.57;;;;;;;;;;5053531;28;20040;-59
2022/01/05 01:50:19;;;;;;;7.97;4.75;;;;;;;;;;5052293;28;20025;-59
2022/01/05 01:52:44;;;;;;;18.35;4.35;;;;;;;;;;5053414;28;20100;-59
2022/01/05 01:55:10;;;;;;;20.85;6.22;;;;;;;;;;5051935;28;20043;-59
2022/01/05 01:57:38;;;;;;;13.60;5.13;;;;;;;;;;5055181;28;20056;-59
2022/01/05 02:00:04;;;;;;;10.85;4.60;;;;;;;;;;5049769;28;20029;-59
2022/01/05 02:02:29;;;;;;;4.07;3.47;;;;;;;;;;5052908;28;20055;-59
2022/01/05 02:04:56;;;;;;;11.10;5.53;;;;;;;;;;5052175;28;20112;-59
2022/01/05 02:07:21;;;;;;;17.48;4.47;;;;;;;;;;5053848;28;20686;-60
2022/01/05 02:09:46;;;;;;;13.03;4.27;;;;;;;;;;5051534;28;20112;-58
2022/01/05 02:12:11;;;;;;;18.50;8.67;;;;;;;;;;5053725;28;20020;-58
2022/01/05 02:14:37;;;;;;;13.30;4.17;;;;;;;;;;5052090;28;20032;-59
2022/01/05 02:17:07;;;;;;;14.68;5.93;;;;;;;;;;5052165;28;20439;-59
2022/01/05 02:19:32;;;;;;;19.45;5.40;;;;;;;;;;5051456;28;20168;-59
2022/01/05 02:21:58;;;;;;;14.10;5.47;;;;;;;;;;5053089;28;20191;-59
2022/01/05 02:24:23;;;;;;;8.15;3.90;;;;;;;;;;5051911;28;20463;-59
2022/01/05 02:26:48;;;;;;;11.63;4.57;;;;;;;;;;5054652;28;20027;-59
2022/01/05 02:29:13;;;;;;;16.93;8.33;;;;;;;;;;5051646;28;20458;-59
2022/01/05 02:31:38;;;;;;;16.20;3.97;;;;;;;;;;5052307;28;20036;-59
2022/01/05 02:34:04;;;;;;;13.55;4.90;;;;;;;;;;5051693;28;20458;-59
2022/01/05 02:36:29;;;;;;;18.27;6.13;;;;;;;;;;5052751;28;20019;-59
2022/01/05 02:38:55;;;;;;;13.88;5.07;;;;;;;;;;5051343;28;20032;-59
2022/01/05 02:41:20;;;;;;;18.60;5.25;;;;;;;;;;5048961;28;20530;-59
2022/01/05 02:43:45;;;;;;;8.73;5.25;;;;;;;;;;5051160;28;20528;-59
2022/01/05 02:46:14;;;;;;;13.70;4.13;;;;;;;;;;5052552;28;20017;-59
2022/01/05 02:48:40;;;;;;;10.38;4.75;;;;;;;;;;5050961;28;20009;-59
2022/01/05 02:51:06;;;;;;;22.77;6.10;;;;;;;;;;5052995;28;20030;-60
2022/01/05 02:53:31;;;;;;;19.83;5.15;;;;;;;;;;5049564;28;20113;-60
2022/01/05 02:55:56;;;;;;;21.48;6.88;;;;;;;;;;5050769;28;20116;-60
2022/01/05 02:58:22;;;;;;;25.08;5.82;;;;;;;;;;5052672;28;20044;-60
2022/01/05 03:00:47;;;;;;;15.27;4.78;;;;;;;;;;5050268;28;20037;-59
2022/01/05 03:03:12;;;;;;;11.77;3.77;;;;;;;;;;5052317;28;20027;-60
2022/01/05 03:05:37;;;;;;;17.80;5.20;;;;;;;;;;5051311;28;20876;-60
2022/01/05 03:08:03;;;;;;;11.55;5.07;;;;;;;;;;5052454;28;20013;-59
2022/01/05 03:10:28;;;;;;;11.85;5.90;;;;;;;;;;5047588;28;20029;-60
2022/01/05 03:12:53;;;;;;;18.90;6.97;;;;;;;;;;5052145;28;20021;-60
2022/01/05 03:15:18;;;;;;;14.40;5.47;;;;;;;;;;5050700;28;20033;-59
2022/01/05 03:17:44;;;;;;;14.00;4.80;;;;;;;;;;5051642;28;20017;-60
2022/01/05 03:20:11;;;;;;;21.17;6.25;;;;;;;;;;5050548;28;20617;-60
2022/01/05 03:22:36;;;;;;;12.85;5.30;;;;;;;;;;5051643;28;20032;-59
2022/01/05 03:25:01;;;;;;;13.55;5.25;;;;;;;;;;5047598;28;20029;-60
2022/01/05 03:27:27;;;;;;;10.60;5.32;;;;;;;;;;5051920;28;20108;-59
2022/01/05 03:29:52;;;;;;;16.03;4.93;;;;;;;;;;5050319;28;20427;-60
2022/01/05 03:32:17;;;;;;;18.70;5.73;;;;;;;;;;5049246;28;20522;-60
2022/01/05 03:34:44;;;;;;;17.03;6.20;;;;;;;;;;5044664;28;20029;-59
2022/01/05 03:37:09;;;;;;;20.33;6.32;;;;;;;;;;5051857;28;20435;-59
2022/01/05 03:39:34;;;;;;;13.68;5.43;;;;;;;;;;5049549;28;20029;-60
2022/01/05 03:42:00;;;;;;;18.02;6.63;;;;;;;;;;5051601;28;20019;-59
2022/01/05 03:44:26;;;;;;;22.33;5.65;;;;;;;;;;5050201;28;20558;-59
2022/01/05 03:46:51;;;;;;;22.63;6.75;;;;;;;;;;5051309;28;20423;-59
2022/01/05 03:49:16;;;;;;;13.32;6.07;;;;;;;;;;5047684;28;20037;-59
2022/01/05 03:51:42;;;;;;;16.00;4.43;;;;;;;;;;5050901;28;20479;-59
2022/01/05 03:54:07;;;;;;;21.27;6.15;;;;;;;;;;5049519;28;20044;-58
2022/01/05 03:56:32;;;;;;;21.65;6.00;;;;;;;;;;5051120;28;20017;-59
2022/01/05 03:58:57;;;;;;;14.03;4.23;;;;;;;;;;5050824;28;21061;-59
2022/01/05 04:01:22;;;;;;;8.48;3.80;;;;;;;;;;5050899;28;20021;-59
2022/01/05 04:03:48;;;;;;;10.43;4.80;;;;;;;;;;5050092;28;20048;-59
2022/01/05 04:06:14;;;;;;;10.35;5.43;;;;;;;;;;5051422;28;20070;-59
2022/01/05 04:08:39;;;;;;;11.07;5.00;;;;;;;;;;5049158;28;20009;-59
2022/01/05 04:11:05;;;;;;;11.18;6.90;;;;;;;;;;5048444;28;20024;-59
2022/01/05 04:13:30;;;;;;;16.80;5.78;;;;;;;;;;5051002;28;20017;-60
2022/01/05 04:15:55;;;;;;;7.85;5.05;;;;;;;;;;5051531;28;20040;-59
2022/01/05 04:18:20;;;;;;;26.95;6.32;;;;;;;;;;5051128;28;20543;-59
2022/01/05 04:20:45;;;;;;;24.45;7.88;;;;;;;;;;5049023;28;20059;-60
2022/01/05 04:23:10;;;;;;;17.77;8.77;;;;;;;;;;5050720;28;20056;-59
2022/01/05 04:25:36;;;;;;;35.42;6.95;;;;;;;;;;5049284;28;20447;-59
2022/01/05 04:28:02;;;;;;;13.95;5.90;;;;;;;;;;5051020;28;20078;-59
2022/01/05 04:30:27;;;;;;;15.68;5.25;;;;;;;;;;5046450;28;20029;-59
2022/01/05 04:32:53;;;;;;;17.60;6.05;;;;;;;;;;5051779;28;20031;-58
2022/01/05 04:35:18;;;;;;;15.03;4.67;;;;;;;;;;5049322;28;20507;-58
2022/01/05 04:37:43;;;;;;;23.57;6.60;;;;;;;;;;5049995;28;20435;-58
2022/01/05 04:40:09;;;;;;;26.52;6.93;;;;;;;;;;5047709;28;20377;-58
2022/01/05 04:42:34;;;;;;;21.35;5.57;;;;;;;;;;5050243;28;20056;-58
2022/01/05 04:44:59;;;;;;;37.83;11.73;;;;;;;;;;5049008;28;20486;-58
2022/01/05 04:47:24;;;;;;;19.90;4.88;;;;;;;;;;5048119;28;20025;-58
2022/01/05 04:49:49;;;;;;;13.70;5.80;;;;;;;;;;5050356;28;20025;-58
2022/01/05 04:52:15;;;;;;;11.50;5.53;;;;;;;;;;5050232;28;20053;-58
2022/01/05 04:54:40;;;;;;;13.25;5.40;;;;;;;;;;5048729;28;20033;-58
2022/01/05 04:57:06;;;;;;;20.23;5.18;;;;;;;;;;5050412;28;20056;-58
2022/01/05 04:59:31;;;;;;;10.02;5.80;;;;;;;;;;5048748;28;20393;-58
2022/01/05 05:01:56;;;;;;;16.63;5.32;;;;;;;;;;5050581;28;20020;-58
2022/01/05 05:04:21;;;;;;;20.65;6.20;;;;;;;;;;5047501;28;20492;-58
2022/01/05 05:06:47;;;;;;;32.90;7.53;;;;;;;;;;5053906;28;20131;-58
2022/01/05 05:09:12;;;;;;;17.08;6.22;;;;;;;;;;5054210;28;20041;-58
2022/01/05 05:11:37;;;;;;;22.65;5.85;;;;;;;;;;5054088;28;20013;-58
2022/01/05 05:14:02;;;;;;;12.77;6.25;;;;;;;;;;5052193;28;20037;-58
2022/01/05 05:16:27;;;;;;;23.50;6.55;;;;;;;;;;5053928;28;20100;-58
2022/01/05 05:18:53;;;;;;;9.43;3.85;;;;;;;;;;5053320;28;20469;-58
2022/01/05 05:21:18;;;;;;;44.53;6.83;;;;;;;;;;5066803;28;20021;-58
2022/01/05 05:23:43;;;;;;;11.77;6.43;;;;;;;;;;5073124;28;20020;-58
2022/01/05 05:26:08;;;;;;;31.23;6.05;;;;;;;;;;5074788;28;20543;-58
2022/01/05 05:28:33;;;;;;;16.53;6.43;;;;;;;;;;5074595;28;20058;-58
2022/01/05 05:30:58;;;;;;;17.27;5.03;;;;;;;;;;5072804;28;20062;-58
2022/01/05 05:33:23;;;;;;;22.23;7.23;;;;;;;;;;5071471;28;20385;-58
2022/01/05 05:35:49;;;;;;;19.80;5.95;;;;;;;;;;5051118;28;20045;-58
2022/01/05 05:38:15;;;;;;;10.35;5.22;;;;;;;;;;5054924;28;20025;-58
2022/01/05 05:40:41;;;;;;;25.60;5.93;;;;;;;;;;5052192;28;20167;-58
2022/01/05 05:43:06;;;;;;;7.82;5.65;;;;;;;;;;5053851;28;20028;-58
2022/01/05 05:45:32;;;;;;;14.55;5.30;;;;;;;;;;5049126;28;20041;-58
2022/01/05 05:47:57;;;;;;;13.53;5.20;;;;;;;;;;5053899;28;20013;-58
2022/01/05 05:50:22;;;;;;;17.92;5.88;;;;;;;;;;5052374;28;20025;-58
2022/01/05 05:52:47;;;;;;;17.30;6.72;;;;;;;;;;5053128;28;20028;-58
2022/01/05 05:55:13;;;;;;;13.17;5.37;;;;;;;;;;5052219;28;20065;-58
2022/01/05 05:57:38;;;;;;;18.45;4.72;;;;;;;;;;5053473;28;20435;-58
2022/01/05 06:00:04;;;;;;;19.63;6.97;;;;;;;;;;5051942;28;20056;-58
2022/01/05 06:02:29;;;;;;;25.95;6.65;;;;;;;;;;5052962;28;20151;-58
2022/01/05 06:04:54;;;;;;;19.17;6.15;;;;;;;;;;5052326;28;20033;-58
2022/01/05 06:07:19;;;;;;;12.65;5.75;;;;;;;;;;5053090;28;20507;-58
2022/01/05 06:09:44;;;;;;;13.80;4.60;;;;;;;;;;5052022;28;20053;-57
2022/01/05 06:12:10;;;;;;;23.63;7.17;;;;;;;;;;5053194;28;20778;-58
2022/01/05 06:14:35;;;;;;;26.90;8.27;;;;;;;;;;5051138;28;20442;-58
2022/01/05 06:17:00;;;;;;;17.55;5.38;;;;;;;;;;5053213;28;20372;-58
2022/01/05 06:19:25;;;;;;;27.50;7.57;;;;;;;;;;5051740;28;20041;-57
2022/01/05 06:21:50;;;;;;;26.20;8.02;;;;;;;;;;5052267;28;20519;-58
2022/01/05 06:24:16;;;;;;;21.63;5.65;;;;;;;;;;5051943;28;20037;-58
2022/01/05 06:26:41;;;;;;;22.58;8.80;;;;;;;;;;5052679;28;20029;-57
2022/01/05 06:29:08;;;;;;;32.08;6.88;;;;;;;;;;5051285;28;20439;-56
2022/01/05 06:31:33;;;;;;;25.70;7.10;;;;;;;;;;5050566;28;20028;-56
2022/01/05 06:33:58;;;;;;;18.73;8.10;;;;;;;;;;5051622;28;20041;-58
2022/01/05 06:36:23;;;;;;;30.05;8.13;;;;;;;;;;5052500;28;20044;-58
2022/01/05 06:38:48;;;;;;;25.05;7.35;;;;;;;;;;5051521;28;20380;-57
2022/01/05 06:41:14;;;;;;;19.55;6.60;;;;;;;;;;5052855;28;20013;-57
2022/01/05 06:43:39;;;;;;;22.42;6.20;;;;;;;;;;5050591;28;20029;-56
2022/01/05 06:46:04;;;;;;;18.30;6.47;;;;;;;;;;5052589;28;20020;-57
2022/01/05 06:48:29;;;;;;;23.23;7.33;;;;;;;;;;5052442;28;20016;-58
2022/01/05 06:50:54;;;;;;;19.73;6.47;;;;;;;;;;5050785;28;20502;-57
2022/01/05 06:53:20;;;;;;;22.20;8.17;;;;;;;;;;5053244;28;20025;-57
2022/01/05 06:55:45;;;;;;;21.02;6.63;;;;;;;;;;5051198;28;20463;-57
2022/01/05 06:58:10;;;;;;;14.70;5.83;;;;;;;;;;5052534;28;20016;-56
2022/01/05 07:00:35;;;;;;;26.30;8.43;;;;;;;;;;5050597;28;20451;-58
2022/01/05 07:03:00;;;;;;;11.50;5.23;;;;;;;;;;5052532;28;20047;-57
2022/01/05 07:05:25;;;;;;;12.10;6.20;;;;;;;;;;5050544;28;20839;-57
2022/01/05 07:07:51;;;;;;;16.88;7.32;;;;;;;;;;5052131;28;20060;-57
2022/01/05 07:10:17;;;;;;;17.30;6.90;;;;;;;;;;5050977;28;20029;-57
2022/01/05 07:12:42;;;;;;;17.73;6.25;;;;;;;;;;5052419;28;20041;-57
2022/01/05 07:15:07;;;;;;;18.50;7.10;;;;;;;;;;5051201;28;20448;-57
2022/01/05 07:17:33;;;;;;;25.77;7.97;;;;;;;;;;5052619;28;20104;-57
2022/01/05 07:19:58;;;;;;;13.45;5.97;;;;;;;;;;5050473;28;20109;-57
2022/01/05 07:22:23;;;;;;;24.73;8.10;;;;;;;;;;5052402;28;20484;-57
2022/01/05 07:24:49;;;;;;;23.25;7.28;;;;;;;;;;5050525;28;20081;-57
2022/01/05 07:27:14;;;;;;;19.08;6.32;;;;;;;;;;5050041;28;20025;-57
2022/01/05 07:29:39;;;;;;;19.55;6.63;;;;;;;;;;5050578;28;20171;-57
2022/01/05 07:32:04;;;;;;;13.73;5.43;;;;;;;;;;5051619;28;20013;-57
2022/01/05 07:34:30;;;;;;;19.55;6.18;;;;;;;;;;5050341;28;20463;-56
2022/01/05 07:36:55;;;;;;;28.23;10.52;;;;;;;;;;5052150;28;20017;-54
2022/01/05 07:39:20;;;;;;;23.83;7.77;;;;;;;;;;5050992;28;20041;-55
2022/01/05 07:41:45;;;;;;;18.27;7.90;;;;;;;;;;5051896;28;20443;-55
2022/01/05 07:44:10;;;;;;;32.50;8.52;;;;;;;;;;5049922;28;20060;-55
2022/01/05 07:46:35;;;;;;;17.67;7.97;;;;;;;;;;5052158;28;20021;-55
2022/01/05 07:49:02;;;;;;;14.82;6.55;;;;;;;;;;5050672;28;20431;-55
2022/01/05 07:51:27;;;;;;;37.13;8.98;;;;;;;;;;5051914;28;20049;-55
2022/01/05 07:53:53;;;;;;;17.27;6.30;;;;;;;;;;5050450;28;20052;-55
2022/01/05 07:56:18;;;;;;;21.23;8.50;;;;;;;;;;5052040;28;20017;-55
2022/01/05 07:58:43;;;;;;;13.50;5.60;;;;;;;;;;5049726;28;20412;-55
2022/01/05 08:01:08;;;;;;;29.80;7.78;;;;;;;;;;5051594;28;20454;-55
2022/01/05 08:03:33;;;;;;;22.07;8.20;;;;;;;;;;5051620;28;20512;-55
2022/01/05 08:06:02;;;;;;;24.77;9.18;;;;;;;;;;5049911;28;20447;-53
2022/01/05 08:08:28;;;;;;;21.90;7.00;;;;;;;;;;5051736;28;20119;-55
2022/01/05 08:10:53;;;;;;;20.40;7.65;;;;;;;;;;5050318;28;20120;-55
2022/01/05 08:13:18;;;;;;;25.83;8.90;;;;;;;;;;5051324;28;20060;-55
2022/01/05 08:15:43;;;;;;;23.90;9.15;;;;;;;;;;5049900;28;20041;-55
2022/01/05 08:18:08;;;;;;;30.33;8.93;;;;;;;;;;5051299;28;20693;-56
2022/01/05 08:20:33;;;;;;;24.35;6.85;;;;;;;;;;5049479;28;20496;-55
2022/01/05 08:22:59;;;;;;;20.80;8.83;;;;;;;;;;5051380;28;20021;-54
2022/01/05 08:25:24;;;;;;;18.23;6.40;;;;;;;;;;5050051;28;20488;-55
2022/01/05 08:27:49;;;;;;;17.60;5.47;;;;;;;;;;5050867;28;20432;-55
2022/01/05 08:30:16;;;;;;;24.90;6.53;;;;;;;;;;5050134;28;20455;-55
2022/01/05 08:32:41;;;;;;;32.22;6.30;;;;;;;;;;5051406;28;20075;-55
2022/01/05 08:35:06;;;;;;;20.10;7.18;;;;;;;;;;5049546;28;20033;-54
2022/01/05 08:37:32;;;;;;;24.63;9.43;;;;;;;;;;5046500;28;20039;-55
2022/01/05 08:39:57;;;;;;;32.20;8.63;;;;;;;;;;5049446;28;20443;-55
2022/01/05 08:42:22;;;;;;;18.58;7.35;;;;;;;;;;5050365;28;20036;-55
2022/01/05 08:44:47;;;;;;;21.50;7.23;;;;;;;;;;5059618;28;20128;-55
2022/01/05 08:47:12;;;;;;;13.73;6.43;;;;;;;;;;5071254;28;20027;-55
2022/01/05 08:49:37;;;;;;;32.08;8.65;;;;;;;;;;5047225;28;20490;-56
2022/01/05 08:52:03;;;;;;;36.10;9.85;;;;;;;;;;5050935;28;20016;-55
2022/01/05 08:54:28;;;;;;;18.88;6.18;;;;;;;;;;5048847;28;20558;-55
2022/01/05 08:56:54;;;;;;;17.05;6.78;;;;;;;;;;5049620;28;20099;-56
2022/01/05 08:59:19;;;;;;;26.38;9.05;;;;;;;;;;5049182;28;20057;-56
2022/01/05 09:01:44;;;;;;;15.73;6.23;;;;;;;;;;5050643;28;20053;-54
2022/01/05 09:04:09;;;;;;;26.53;8.77;;;;;;;;;;5049191;28;20474;-55
2022/01/05 09:06:35;;;;;;;16.23;7.22;;;;;;;;;;5050542;28;20079;-55
2022/01/05 09:09:00;;;;;;;36.08;9.13;;;;;;;;;;5049423;28;20082;-55
2022/01/05 09:11:27;;;;;;;25.88;6.93;;;;;;;;;;5050473;28;20021;-56
2022/01/05 09:13:52;;;;;;;26.35;6.60;;;;;;;;;;5049268;28;20028;-55
2022/01/05 09:16:18;;;;;;;19.55;6.00;;;;;;;;;;5051077;28;20051;-56
2022/01/05 09:18:43;;;;;;;21.38;5.47;;;;;;;;;;5048823;28;20052;-56
2022/01/05 09:21:09;;;;;;;23.07;7.27;;;;;;;;;;5050312;28;20473;-55
2022/01/05 09:23:34;;;;;;;19.48;6.07;;;;;;;;;;5050303;28;20049;-56
2022/01/05 09:25:59;;;;;;;20.75;6.93;;;;;;;;;;5048720;28;20041;-56
2022/01/05 09:28:24;;;;;;;27.33;7.50;;;;;;;;;;5050823;28;20028;-56
2022/01/05 09:30:50;;;;;;;15.95;5.65;;;;;;;;;;5048587;28;20455;-56
2022/01/05 09:33:15;;;;;;;14.00;5.80;;;;;;;;;;5050282;28;20029;-56
2022/01/05 09:35:41;;;;;;;24.73;8.30;;;;;;;;;;5048972;28;20033;-55
2022/01/05 09:38:10;;;;;;;30.48;6.45;;;;;;;;;;5050977;28;20029;-56
2022/01/05 09:43:19;;;;;;;14.80;6.50;;;;;;;;;;5050784;28;20029;-57
2022/01/05 09:46:05;;;;;;;13.52;5.95;;;;;;;;;;5048855;28;20037;-56
2022/01/05 09:48:43;;;;;;;27.00;7.55;;;;;;;;;;5050179;28;20043;-57
2022/01/05 09:51:12;;;;;;;16.63;7.97;;;;;;;;;;5051301;28;20284;-56
2022/01/05 09:53:38;;;;;;;20.38;6.85;;;;;;;;;;5054057;28;20021;-56
2022/01/05 09:56:04;;;;;;;7.32;5.30;;;;;;;;;;5052406;28;20033;-56
2022/01/05 09:58:30;;;;;;;28.38;7.30;;;;;;;;;;5054067;28;20060;-56
2022/01/05 10:00:55;;;;;;;17.48;6.38;;;;;;;;;;5052525;28;20033;-56
2022/01/05 10:03:21;;;;;;;20.17;5.70;;;;;;;;;;5053728;28;20028;-57
2022/01/05 10:05:46;;;;;;;17.15;8.25;;;;;;;;;;5052354;28;20475;-56
2022/01/05 10:08:11;;;;;;;15.17;5.37;;;;;;;;;;5054100;28;20017;-56
2022/01/05 10:10:37;;;;;;;14.88;5.35;;;;;;;;;;5051909;28;20597;-57
2022/01/05 10:13:02;;;;;;;13.73;6.23;;;;;;;;;;5053955;28;20142;-56
2022/01/05 10:15:28;;;;;;;12.10;5.15;;;;;;;;;;5052451;28;20512;-56
2022/01/05 10:18:10;;;;;;;19.23;4.70;;;;;;;;;;5049438;28;20027;-56
2022/01/05 10:20:35;;;;;;;19.13;4.78;;;;;;;;;;5054104;28;20075;-56
2022/01/05 10:23:00;;;;;;;12.70;4.27;;;;;;;;;;5053390;28;20055;-55
2022/01/05 10:25:25;;;;;;;10.13;4.60;;;;;;;;;;5051764;28;20490;-57
2022/01/05 10:27:54;;;;;;;17.70;4.50;;;;;;;;;;5053453;28;20450;-56
2022/01/05 10:30:19;;;;;;;9.52;4.57;;;;;;;;;;5059758;28;20048;-56
2022/01/05 10:32:45;;;;;;;16.20;5.40;;;;;;;;;;5052986;28;20025;-57
2022/01/05 10:35:17;;;;;;;9.43;5.35;;;;;;;;;;5052058;28;20512;-56
2022/01/05 10:37:44;;;;;;;11.73;3.97;;;;;;;;;;5053041;28;20028;-56
2022/01/05 10:40:27;;;;;;;9.10;4.03;;;;;;;;;;5051595;28;20098;-56
2022/01/05 10:42:54;;;;;;;6.97;4.60;;;;;;;;;;5052822;28;20033;-56
2022/01/05 10:45:23;;;;;;;15.43;7.00;;;;;;;;;;5051832;28;20516;-56
2022/01/05 10:48:08;;;;;;;4.93;4.30;;;;;;;;;;5052971;28;20017;-56
2022/01/05 10:50:33;;;;;;;8.57;4.70;;;;;;;;;;5051512;28;20040;-56
2022/01/05 10:52:59;;;;;;;10.63;5.50;;;;;;;;;;5053195;28;20372;-56
2022/01/05 10:55:25;;;;;;;9.23;4.22;;;;;;;;;;5051414;28;20033;-56
2022/01/05 10:57:54;;;;;;;9.95;4.53;;;;;;;;;;5052561;28;20039;-57
2022/01/05 11:00:29;;;;;;;7.43;4.53;;;;;;;;;;5051523;28;20531;-56
2022/01/05 11:02:54;;;;;;;9.05;4.90;;;;;;;;;;5050489;28;20023;-57
2022/01/05 11:05:19;;;;;;;21.23;7.37;;;;;;;;;;5048870;28;20033;-57
2022/01/05 11:07:47;;;;;;;10.73;5.00;;;;;;;;;;5052437;28;20430;-57
2022/01/05 11:10:14;;;;;;;4.50;4.15;;;;;;;;;;5050225;28;20064;-56
2022/01/05 11:12:40;;;;;;;12.80;3.38;;;;;;;;;;5072567;28;20056;-57
2022/01/05 11:15:26;;;;;;;10.45;5.07;;;;;;;;;;5055168;28;20071;-56
2022/01/05 11:18:11;;;;;;;9.52;4.70;;;;;;;;;;5062913;28;20021;-56
2022/01/05 11:20:42;;;;;;;15.52;5.10;;;;;;;;;;5030984;28;20666;-56
2022/01/05 11:23:07;;;;;;;10.50;4.13;;;;;;;;;;5048711;28;20025;-56
2022/01/05 11:25:34;;;;;;;9.65;3.75;;;;;;;;;;5050578;28;20115;-56
2022/01/05 11:28:00;;;;;;;8.77;3.78;;;;;;;;;;5072603;28;20025;-56
2022/01/05 11:30:26;;;;;;;12.00;4.22;;;;;;;;;;5062358;28;20044;-56
2022/01/05 11:32:51;;;;;;;8.40;3.85;;;;;;;;;;5060264;28;20021;-56
2022/01/05 11:35:16;;;;;;;15.90;4.03;;;;;;;;;;5050785;28;20061;-56
2022/01/05 11:37:42;;;;;;;10.75;3.55;;;;;;;;;;5066135;28;20469;-56
2022/01/05 11:40:07;;;;;;;15.05;4.78;;;;;;;;;;5068768;28;20076;-56
2022/01/05 11:42:34;;;;;;;16.58;4.60;;;;;;;;;;5071813;28;20021;-56
2022/01/05 11:45:00;;;;;;;8.90;4.90;;;;;;;;;;5070650;28;20024;-57
2022/01/05 11:47:27;;;;;;;10.52;4.63;;;;;;;;;;5056777;28;20025;-55
2022/01/05 11:49:52;;;;;;;15.07;4.85;;;;;;;;;;5064816;28;20041;-56
2022/01/05 11:52:18;;;;;;;18.75;7.60;;;;;;;;;;5071238;28;20017;-56
2022/01/05 11:55:00;;;;;;;14.82;3.50;;;;;;;;;;5070015;28;20059;-56
2022/01/05 11:57:25;;;;;;;18.08;5.68;;;;;;;;;;5072035;28;20324;-56
2022/01/05 11:59:50;;;;;;;35.03;8.55;;;;;;;;;;5067328;28;20033;-56
2022/01/05 12:02:17;;;;;;;18.83;5.50;;;;;;;;;;5048947;28;20021;-56
2022/01/05 12:04:52;;;;;;;23.92;8.63;;;;;;;;;;5049793;28;20075;-56
2022/01/05 12:07:33;;;;;;;26.20;7.78;;;;;;;;;;5051615;28;20502;-56
2022/01/05 12:09:59;;;;;;;14.95;6.22;;;;;;;;;;5049867;28;20560;-56
2022/01/05 12:12:27;;;;;;;18.02;6.47;;;;;;;;;;5051874;28;20074;-56
2022/01/05 12:14:52;;;;;;;18.77;4.72;;;;;;;;;;5049860;28;20045;-56
2022/01/05 12:17:18;;;;;;;8.50;3.55;;;;;;;;;;5051460;28;20376;-56
2022/01/05 12:19:47;;;;;;;11.95;4.82;;;;;;;;;;5049465;28;20519;-56
2022/01/05 12:22:33;;;;;;;14.77;3.45;;;;;;;;;;5051180;28;20039;-56
2022/01/05 12:25:05;;;;;;;8.23;3.35;;;;;;;;;;5049588;28;20037;-56
2022/01/05 12:27:37;;;;;;;7.72;3.47;;;;;;;;;;5051439;28;20144;-56
2022/01/05 12:30:18;;;;;;;14.88;3.60;;;;;;;;;;5050189;28;20072;-56
2022/01/05 12:32:44;;;;;;;12.60;4.65;;;;;;;;;;5050888;28;20016;-56
2022/01/05 12:35:12;;;;;;;14.30;4.07;;;;;;;;;;5049751;28;20396;-56
2022/01/05 12:37:43;;;;;;;11.37;3.67;;;;;;;;;;5051090;28;20122;-56
2022/01/05 12:40:20;;;;;;;10.70;3.97;;;;;;;;;;5049486;28;20538;-56
2022/01/05 12:42:45;;;;;;;21.55;4.75;;;;;;;;;;5050803;28;20047;-56
2022/01/05 12:45:30;;;;;;;13.30;3.13;;;;;;;;;;5045342;28;20485;-56
2022/01/05 12:47:56;;;;;;;21.23;8.43;;;;;;;;;;5050979;28;20021;-56
2022/01/05 12:50:30;;;;;;;15.80;5.07;;;;;;;;;;5048309;28;20037;-56
2022/01/05 12:52:55;;;;;;;24.98;7.25;;;;;;;;;;5070766;28;20021;-57
2022/01/05 12:55:22;;;;;;;23.98;4.90;;;;;;;;;;5069512;28;20036;-56
2022/01/05 12:57:52;;;;;;;15.73;5.55;;;;;;;;;;5052694;28;20535;-56
2022/01/05 13:00:17;;;;;;;14.15;4.28;;;;;;;;;;5049159;28;20124;-56
2022/01/05 13:02:43;;;;;;;17.67;5.17;;;;;;;;;;5050450;28;20151;-56
2022/01/05 13:05:09;;;;;;;19.65;6.00;;;;;;;;;;5049018;28;20408;-56
2022/01/05 13:07:39;;;;;;;14.07;5.55;;;;;;;;;;5050059;28;20028;-56
2022/01/05 13:10:08;;;;;;;21.38;4.60;;;;;;;;;;5048750;28;20509;-56
2022/01/05 13:12:34;;;;;;;;;;;;;;;;;;5050537;28;20009;-56
2022/01/05 13:15:00;;;;;;;29.35;5.63;;;;;;;;;;5048346;28;19912;-56
2022/01/05 13:17:31;;;;;;;22.75;6.85;;;;;;;;;;5050974;28;20013;-56
2022/01/05 13:20:06;;;;;;;12.85;6.15;;;;;;;;;;5049324;28;20420;-56
2022/01/05 13:22:37;;;;;;;19.63;3.45;;;;;;;;;;5045467;28;20031;-56
2022/01/05 13:25:16;;;;;;;16.63;6.45;;;;;;;;;;5048479;28;20033;-56
2022/01/05 13:27:47;;;;;;;23.08;5.10;;;;;;;;;;5054077;28;20021;-56
2022/01/05 13:30:19;;;;;;;18.85;4.63;;;;;;;;;;5052883;28;20033;-55
2022/01/05 13:32:47;;;;;;;26.27;6.70;;;;;;;;;;5054518;28;20039;-56
2022/01/05 13:35:14;;;;;;;20.65;4.30;;;;;;;;;;5053250;28;20033;-56
2022/01/05 13:37:45;;;;;;;22.45;7.03;;;;;;;;;;5053742;28;20013;-56
2022/01/05 13:40:15;;;;;;;18.55;6.32;;;;;;;;;;5053059;28;20033;-56
2022/01/05 13:42:42;;;;;;;14.95;4.72;;;;;;;;;;5053798;28;20566;-56
2022/01/05 13:45:09;;;;;;;23.63;6.60;;;;;;;;;;5052894;28;20087;-56
2022/01/05 13:47:34;;;;;;;9.38;4.95;;;;;;;;;;5053849;28;20017;-56
2022/01/05 13:50:07;;;;;;;20.02;4.47;;;;;;;;;;5052954;28;20029;-56
2022/01/05 13:52:32;;;;;;;13.48;5.72;;;;;;;;;;5053805;28;20028;-57
2022/01/05 13:54:58;;;;;;;14.25;5.00;;;;;;;;;;5052651;28;20052;-57
2022/01/05 13:57:27;;;;;;;13.63;5.03;;;;;;;;;;5054129;28;20033;-57
2022/01/05 13:59:57;;;;;;;17.25;4.18;;;;;;;;;;5052342;28;20506;-57
2022/01/05 14:02:22;;;;;;;15.65;5.70;;;;;;;;;;5054212;28;20021;-57
2022/01/05 14:04:51;;;;;;;14.98;4.55;;;;;;;;;;5052573;28;20194;-58
2022/01/05 14:07:16;;;;;;;;;;;;;;;;;;5054476;28;20028;-57
2022/01/05 14:09:41;;;;;;;18.13;5.28;;;;;;;;;;5052488;28;19909;-58
2022/01/05 14:12:26;;;;;;;13.55;3.58;;;;;;;;;;5053015;28;20060;-58
2022/01/05 14:14:59;;;;;;;10.48;4.03;;;;;;;;;;5048709;28;20029;-58
2022/01/05 14:17:24;;;;;;;13.40;5.07;;;;;;;;;;5050383;28;20025;-57
2022/01/05 14:19:49;;;;;;;17.77;5.28;;;;;;;;;;5050936;28;20462;-57
2022/01/05 14:22:19;;;;;;;11.23;3.72;;;;;;;;;;5053526;28;20025;-57
2022/01/05 14:24:45;;;;;;;16.45;3.95;;;;;;;;;;5051976;28;20517;-57
2022/01/05 14:27:17;;;;;;;14.18;4.43;;;;;;;;;;5053831;28;20110;-57
2022/01/05 14:29:47;;;;;;;14.10;5.05;;;;;;;;;;5051626;28;20045;-57